sensor_id;sensor_type;location;lat;lon;timestamp;P1;durP1;ratioP1;P2;durP2;ratioP2
76964;SDS011;65903;51.452;7.198;2024-01-07T00:00:53;19.80;;;11.43;;
76964;SDS011;65903;51.452;7.198;2024-01-07T00:01:54;18.75;;;9.95;;
76964;SDS011;65903;51.452;7.198;2024-01-07T00:02:54;16.05;;;10.30;;
76964;SDS011;65903;51.452;7.198;2024-01-07T00:03:55;18.73;;;10.98;;
76964;SDS011;65903;51.452;7.198;2024-01-07T00:04:56;17.92;;;10.45;;
76964;SDS011;65903;51.452;7.198;2024-01-07T00:05:58;19.25;;;11.90;;
76964;SDS011;65903;51.452;7.198;2024-01-07T00:06:58;18.13;;;11.38;;
76964;SDS011;65903;51.452;7.198;2024-01-07T00:07:58;16.20;;;8.63;;
76964;SDS011;65903;51.452;7.198;2024-01-07T00:08:59;21.23;;;9.65;;
76964;SDS011;65903;51.452;7.198;2024-01-07T00:09:59;18.23;;;10.50;;
76964;SDS011;65903;51.452;7.198;2024-01-07T00:11:00;19.00;;;11.40;;
76964;SDS011;65903;51.452;7.198;2024-01-07T00:12:00;15.55;;;9.20;;
76964;SDS011;65903;51.452;7.198;2024-01-07T00:13:01;19.98;;;10.93;;
76964;SDS011;65903;51.452;7.198;2024-01-07T00:14:03;17.52;;;11.02;;
76964;SDS011;65903;51.452;7.198;2024-01-07T00:15:04;15.52;;;8.95;;
76964;SDS011;65903;51.452;7.198;2024-01-07T00:16:05;15.45;;;8.82;;
76964;SDS011;65903;51.452;7.198;2024-01-07T00:17:05;17.65;;;10.48;;
76964;SDS011;65903;51.452;7.198;2024-01-07T00:18:06;17.92;;;11.07;;
76964;SDS011;65903;51.452;7.198;2024-01-07T00:19:06;17.33;;;9.57;;
76964;SDS011;65903;51.452;7.198;2024-01-07T00:20:07;16.70;;;9.98;;
76964;SDS011;65903;51.452;7.198;2024-01-07T00:21:07;15.88;;;9.02;;
76964;SDS011;65903;51.452;7.198;2024-01-07T00:22:08;13.60;;;9.57;;
76964;SDS011;65903;51.452;7.198;2024-01-07T00:23:08;14.45;;;8.82;;
76964;SDS011;65903;51.452;7.198;2024-01-07T00:24:08;17.08;;;9.45;;
76964;SDS011;65903;51.452;7.198;2024-01-07T00:25:09;15.93;;;9.20;;
76964;SDS011;65903;51.452;7.198;2024-01-07T00:26:09;14.65;;;9.70;;
76964;SDS011;65903;51.452;7.198;2024-01-07T00:27:10;15.52;;;8.52;;
76964;SDS011;65903;51.452;7.198;2024-01-07T00:28:10;15.68;;;9.60;;
76964;SDS011;65903;51.452;7.198;2024-01-07T00:29:12;14.95;;;9.32;;
76964;SDS011;65903;51.452;7.198;2024-01-07T00:30:12;15.38;;;9.90;;
76964;SDS011;65903;51.452;7.198;2024-01-07T00:31:13;13.68;;;8.93;;
76964;SDS011;65903;51.452;7.198;2024-01-07T00:32:14;13.45;;;8.55;;
76964;SDS011;65903;51.452;7.198;2024-01-07T00:33:15;15.07;;;8.85;;
76964;SDS011;65903;51.452;7.198;2024-01-07T00:34:15;15.98;;;8.32;;
76964;SDS011;65903;51.452;7.198;2024-01-07T00:35:16;16.40;;;9.13;;
76964;SDS011;65903;51.452;7.198;2024-01-07T00:36:17;16.25;;;9.90;;
76964;SDS011;65903;51.452;7.198;2024-01-07T00:37:18;17.08;;;9.63;;
76964;SDS011;65903;51.452;7.198;2024-01-07T00:38:19;16.50;;;8.85;;
76964;SDS011;65903;51.452;7.198;2024-01-07T00:39:19;14.50;;;8.00;;
76964;SDS011;65903;51.452;7.198;2024-01-07T00:40:20;15.82;;;9.13;;
76964;SDS011;65903;51.452;7.198;2024-01-07T00:41:20;15.50;;;8.32;;
76964;SDS011;65903;51.452;7.198;2024-01-07T00:42:21;15.52;;;8.70;;
76964;SDS011;65903;51.452;7.198;2024-01-07T00:43:21;15.40;;;9.02;;
76964;SDS011;65903;51.452;7.198;2024-01-07T00:44:22;16.83;;;10.05;;
76964;SDS011;65903;51.452;7.198;2024-01-07T00:45:23;17.77;;;8.52;;
76964;SDS011;65903;51.452;7.198;2024-01-07T00:46:23;17.77;;;9.93;;
76964;SDS011;65903;51.452;7.198;2024-01-07T00:47:23;15.00;;;8.35;;
76964;SDS011;65903;51.452;7.198;2024-01-07T00:48:24;19.02;;;11.10;;
76964;SDS011;65903;51.452;7.198;2024-01-07T00:49:24;17.77;;;9.32;;
76964;SDS011;65903;51.452;7.198;2024-01-07T00:50:25;16.08;;;10.05;;
76964;SDS011;65903;51.452;7.198;2024-01-07T00:51:25;18.88;;;9.70;;
76964;SDS011;65903;51.452;7.198;2024-01-07T00:52:26;15.82;;;9.30;;
76964;SDS011;65903;51.452;7.198;2024-01-07T00:53:26;18.00;;;8.95;;
76964;SDS011;65903;51.452;7.198;2024-01-07T00:54:26;14.27;;;8.18;;
76964;SDS011;65903;51.452;7.198;2024-01-07T00:55:27;19.10;;;9.77;;
76964;SDS011;65903;51.452;7.198;2024-01-07T00:56:28;19.05;;;10.27;;
76964;SDS011;65903;51.452;7.198;2024-01-07T00:57:29;16.92;;;10.27;;
76964;SDS011;65903;51.452;7.198;2024-01-07T00:58:30;16.58;;;10.23;;
76964;SDS011;65903;51.452;7.198;2024-01-07T00:59:31;17.38;;;9.57;;
76964;SDS011;65903;51.452;7.198;2024-01-07T01:00:31;17.83;;;10.38;;
76964;SDS011;65903;51.452;7.198;2024-01-07T01:01:31;20.60;;;10.13;;
76964;SDS011;65903;51.452;7.198;2024-01-07T01:02:32;17.48;;;9.95;;
76964;SDS011;65903;51.452;7.198;2024-01-07T01:03:32;16.92;;;9.20;;
76964;SDS011;65903;51.452;7.198;2024-01-07T01:04:32;18.08;;;10.38;;
76964;SDS011;65903;51.452;7.198;2024-01-07T01:05:33;22.17;;;11.80;;
76964;SDS011;65903;51.452;7.198;2024-01-07T01:06:33;18.80;;;11.13;;
76964;SDS011;65903;51.452;7.198;2024-01-07T01:07:34;20.33;;;12.65;;
76964;SDS011;65903;51.452;7.198;2024-01-07T01:08:35;18.98;;;10.93;;
76964;SDS011;65903;51.452;7.198;2024-01-07T01:09:36;20.48;;;12.23;;
76964;SDS011;65903;51.452;7.198;2024-01-07T01:10:36;16.75;;;9.85;;
76964;SDS011;65903;51.452;7.198;2024-01-07T01:11:37;19.27;;;9.00;;
76964;SDS011;65903;51.452;7.198;2024-01-07T01:12:37;17.77;;;10.50;;
76964;SDS011;65903;51.452;7.198;2024-01-07T01:13:38;18.70;;;10.65;;
76964;SDS011;65903;51.452;7.198;2024-01-07T01:14:38;19.33;;;11.80;;
76964;SDS011;65903;51.452;7.198;2024-01-07T01:15:39;20.33;;;11.15;;
76964;SDS011;65903;51.452;7.198;2024-01-07T01:16:39;21.60;;;11.52;;
76964;SDS011;65903;51.452;7.198;2024-01-07T01:17:40;21.33;;;11.45;;
76964;SDS011;65903;51.452;7.198;2024-01-07T01:18:41;18.58;;;10.18;;
76964;SDS011;65903;51.452;7.198;2024-01-07T01:19:42;18.83;;;8.57;;
76964;SDS011;65903;51.452;7.198;2024-01-07T01:20:42;20.10;;;10.25;;
76964;SDS011;65903;51.452;7.198;2024-01-07T01:21:42;20.77;;;9.77;;
76964;SDS011;65903;51.452;7.198;2024-01-07T01:22:42;16.75;;;10.20;;
76964;SDS011;65903;51.452;7.198;2024-01-07T01:23:43;20.83;;;10.43;;
76964;SDS011;65903;51.452;7.198;2024-01-07T01:24:44;19.13;;;11.00;;
76964;SDS011;65903;51.452;7.198;2024-01-07T01:25:46;19.05;;;9.82;;
76964;SDS011;65903;51.452;7.198;2024-01-07T01:26:46;19.52;;;9.82;;
76964;SDS011;65903;51.452;7.198;2024-01-07T01:27:49;15.95;;;9.95;;
76964;SDS011;65903;51.452;7.198;2024-01-07T01:28:49;16.60;;;8.40;;
76964;SDS011;65903;51.452;7.198;2024-01-07T01:29:51;18.48;;;9.65;;
76964;SDS011;65903;51.452;7.198;2024-01-07T01:30:51;19.02;;;10.13;;
76964;SDS011;65903;51.452;7.198;2024-01-07T01:31:51;19.60;;;10.50;;
76964;SDS011;65903;51.452;7.198;2024-01-07T01:32:51;19.45;;;9.40;;
76964;SDS011;65903;51.452;7.198;2024-01-07T01:33:52;18.00;;;10.10;;
76964;SDS011;65903;51.452;7.198;2024-01-07T01:34:53;17.33;;;10.15;;
76964;SDS011;65903;51.452;7.198;2024-01-07T01:35:54;18.25;;;11.25;;
76964;SDS011;65903;51.452;7.198;2024-01-07T01:36:54;17.52;;;9.95;;
76964;SDS011;65903;51.452;7.198;2024-01-07T01:37:54;17.35;;;8.75;;
76964;SDS011;65903;51.452;7.198;2024-01-07T01:38:55;17.92;;;10.40;;
76964;SDS011;65903;51.452;7.198;2024-01-07T01:39:55;15.00;;;8.63;;
76964;SDS011;65903;51.452;7.198;2024-01-07T01:40:55;19.30;;;11.10;;
76964;SDS011;65903;51.452;7.198;2024-01-07T01:41:57;17.75;;;9.73;;
76964;SDS011;65903;51.452;7.198;2024-01-07T01:42:58;18.63;;;9.02;;
76964;SDS011;65903;51.452;7.198;2024-01-07T01:44:00;16.27;;;8.35;;
76964;SDS011;65903;51.452;7.198;2024-01-07T01:45:00;16.90;;;10.75;;
76964;SDS011;65903;51.452;7.198;2024-01-07T01:46:02;17.13;;;9.70;;
76964;SDS011;65903;51.452;7.198;2024-01-07T01:47:03;16.48;;;8.85;;
76964;SDS011;65903;51.452;7.198;2024-01-07T01:48:05;14.60;;;8.38;;
76964;SDS011;65903;51.452;7.198;2024-01-07T01:49:06;16.40;;;9.90;;
76964;SDS011;65903;51.452;7.198;2024-01-07T01:50:08;16.70;;;9.20;;
76964;SDS011;65903;51.452;7.198;2024-01-07T01:51:09;17.00;;;9.48;;
76964;SDS011;65903;51.452;7.198;2024-01-07T01:52:10;19.60;;;10.27;;
76964;SDS011;65903;51.452;7.198;2024-01-07T01:53:10;18.15;;;10.95;;
76964;SDS011;65903;51.452;7.198;2024-01-07T01:54:11;17.92;;;8.98;;
76964;SDS011;65903;51.452;7.198;2024-01-07T01:55:11;16.50;;;8.80;;
76964;SDS011;65903;51.452;7.198;2024-01-07T01:56:12;18.27;;;9.23;;
76964;SDS011;65903;51.452;7.198;2024-01-07T01:57:13;19.65;;;11.32;;
76964;SDS011;65903;51.452;7.198;2024-01-07T01:58:15;17.45;;;10.18;;
76964;SDS011;65903;51.452;7.198;2024-01-07T01:59:17;12.32;;;8.68;;
76964;SDS011;65903;51.452;7.198;2024-01-07T02:00:19;17.92;;;9.88;;
76964;SDS011;65903;51.452;7.198;2024-01-07T02:01:19;15.95;;;9.52;;
76964;SDS011;65903;51.452;7.198;2024-01-07T02:02:20;18.08;;;9.80;;
76964;SDS011;65903;51.452;7.198;2024-01-07T02:03:20;18.30;;;11.23;;
76964;SDS011;65903;51.452;7.198;2024-01-07T02:04:21;16.42;;;9.20;;
76964;SDS011;65903;51.452;7.198;2024-01-07T02:05:21;18.42;;;10.85;;
76964;SDS011;65903;51.452;7.198;2024-01-07T02:06:22;17.60;;;9.38;;
76964;SDS011;65903;51.452;7.198;2024-01-07T02:07:24;15.95;;;9.95;;
76964;SDS011;65903;51.452;7.198;2024-01-07T02:08:25;13.15;;;7.60;;
76964;SDS011;65903;51.452;7.198;2024-01-07T02:09:26;19.00;;;9.27;;
76964;SDS011;65903;51.452;7.198;2024-01-07T02:10:26;15.38;;;8.10;;
76964;SDS011;65903;51.452;7.198;2024-01-07T02:11:29;14.73;;;10.02;;
76964;SDS011;65903;51.452;7.198;2024-01-07T02:12:30;18.55;;;9.43;;
76964;SDS011;65903;51.452;7.198;2024-01-07T02:13:30;16.27;;;9.77;;
76964;SDS011;65903;51.452;7.198;2024-01-07T02:14:31;15.50;;;9.30;;
76964;SDS011;65903;51.452;7.198;2024-01-07T02:15:32;17.75;;;11.77;;
76964;SDS011;65903;51.452;7.198;2024-01-07T02:16:33;17.17;;;9.40;;
76964;SDS011;65903;51.452;7.198;2024-01-07T02:17:34;15.25;;;7.95;;
76964;SDS011;65903;51.452;7.198;2024-01-07T02:18:35;16.23;;;9.13;;
76964;SDS011;65903;51.452;7.198;2024-01-07T02:19:35;16.05;;;10.25;;
76964;SDS011;65903;51.452;7.198;2024-01-07T02:20:36;18.08;;;11.50;;
76964;SDS011;65903;51.452;7.198;2024-01-07T02:21:36;17.33;;;10.88;;
76964;SDS011;65903;51.452;7.198;2024-01-07T02:22:37;19.73;;;11.20;;
76964;SDS011;65903;51.452;7.198;2024-01-07T02:23:38;16.38;;;10.32;;
76964;SDS011;65903;51.452;7.198;2024-01-07T02:24:38;19.80;;;11.10;;
76964;SDS011;65903;51.452;7.198;2024-01-07T02:25:39;18.08;;;12.18;;
76964;SDS011;65903;51.452;7.198;2024-01-07T02:26:39;19.00;;;10.25;;
76964;SDS011;65903;51.452;7.198;2024-01-07T02:27:40;21.55;;;11.43;;
76964;SDS011;65903;51.452;7.198;2024-01-07T02:28:40;17.55;;;10.27;;
76964;SDS011;65903;51.452;7.198;2024-01-07T02:29:40;22.90;;;9.15;;
76964;SDS011;65903;51.452;7.198;2024-01-07T02:30:41;20.38;;;10.88;;
76964;SDS011;65903;51.452;7.198;2024-01-07T02:31:41;14.82;;;9.63;;
76964;SDS011;65903;51.452;7.198;2024-01-07T02:32:42;17.25;;;9.60;;
76964;SDS011;65903;51.452;7.198;2024-01-07T02:33:42;20.42;;;11.40;;
76964;SDS011;65903;51.452;7.198;2024-01-07T02:34:42;20.00;;;13.40;;
76964;SDS011;65903;51.452;7.198;2024-01-07T02:35:43;20.92;;;13.05;;
76964;SDS011;65903;51.452;7.198;2024-01-07T02:36:44;21.38;;;13.07;;
76964;SDS011;65903;51.452;7.198;2024-01-07T02:37:45;20.63;;;11.07;;
76964;SDS011;65903;51.452;7.198;2024-01-07T02:38:45;22.77;;;12.18;;
76964;SDS011;65903;51.452;7.198;2024-01-07T02:39:46;18.98;;;10.40;;
76964;SDS011;65903;51.452;7.198;2024-01-07T02:40:46;18.85;;;12.55;;
76964;SDS011;65903;51.452;7.198;2024-01-07T02:41:46;19.70;;;11.95;;
76964;SDS011;65903;51.452;7.198;2024-01-07T02:42:47;22.75;;;13.68;;
76964;SDS011;65903;51.452;7.198;2024-01-07T02:43:48;20.35;;;11.60;;
76964;SDS011;65903;51.452;7.198;2024-01-07T02:44:48;21.73;;;12.32;;
76964;SDS011;65903;51.452;7.198;2024-01-07T02:45:48;18.45;;;10.95;;
76964;SDS011;65903;51.452;7.198;2024-01-07T02:46:48;24.73;;;13.10;;
76964;SDS011;65903;51.452;7.198;2024-01-07T02:47:49;20.88;;;11.43;;
76964;SDS011;65903;51.452;7.198;2024-01-07T02:48:50;22.90;;;14.18;;
76964;SDS011;65903;51.452;7.198;2024-01-07T02:49:50;23.80;;;13.68;;
76964;SDS011;65903;51.452;7.198;2024-01-07T02:50:51;24.20;;;13.07;;
76964;SDS011;65903;51.452;7.198;2024-01-07T02:51:53;23.02;;;14.52;;
76964;SDS011;65903;51.452;7.198;2024-01-07T02:52:53;25.02;;;13.85;;
76964;SDS011;65903;51.452;7.198;2024-01-07T02:53:53;24.05;;;14.32;;
76964;SDS011;65903;51.452;7.198;2024-01-07T02:54:54;25.20;;;14.00;;
76964;SDS011;65903;51.452;7.198;2024-01-07T02:55:54;25.33;;;13.20;;
76964;SDS011;65903;51.452;7.198;2024-01-07T02:56:55;25.85;;;14.68;;
76964;SDS011;65903;51.452;7.198;2024-01-07T02:57:55;22.30;;;11.82;;
76964;SDS011;65903;51.452;7.198;2024-01-07T02:58:55;24.00;;;12.48;;
76964;SDS011;65903;51.452;7.198;2024-01-07T02:59:56;26.85;;;14.30;;
76964;SDS011;65903;51.452;7.198;2024-01-07T03:00:56;22.90;;;12.65;;
76964;SDS011;65903;51.452;7.198;2024-01-07T03:01:57;24.80;;;12.85;;
76964;SDS011;65903;51.452;7.198;2024-01-07T03:02:57;19.65;;;11.75;;
76964;SDS011;65903;51.452;7.198;2024-01-07T03:03:58;16.15;;;10.70;;
76964;SDS011;65903;51.452;7.198;2024-01-07T03:04:58;24.65;;;14.48;;
76964;SDS011;65903;51.452;7.198;2024-01-07T03:05:58;24.52;;;12.52;;
76964;SDS011;65903;51.452;7.198;2024-01-07T03:06:59;24.27;;;13.02;;
76964;SDS011;65903;51.452;7.198;2024-01-07T03:07:59;23.40;;;13.23;;
76964;SDS011;65903;51.452;7.198;2024-01-07T03:09:00;24.60;;;14.00;;
76964;SDS011;65903;51.452;7.198;2024-01-07T03:10:01;25.98;;;14.32;;
76964;SDS011;65903;51.452;7.198;2024-01-07T03:11:05;25.83;;;13.93;;
76964;SDS011;65903;51.452;7.198;2024-01-07T03:12:07;25.08;;;13.35;;
76964;SDS011;65903;51.452;7.198;2024-01-07T03:13:08;25.08;;;14.48;;
76964;SDS011;65903;51.452;7.198;2024-01-07T03:14:09;28.10;;;14.55;;
76964;SDS011;65903;51.452;7.198;2024-01-07T03:15:10;25.88;;;14.13;;
76964;SDS011;65903;51.452;7.198;2024-01-07T03:16:18;28.80;;;15.00;;
76964;SDS011;65903;51.452;7.198;2024-01-07T03:17:19;25.60;;;13.25;;
76964;SDS011;65903;51.452;7.198;2024-01-07T03:18:19;22.45;;;12.93;;
76964;SDS011;65903;51.452;7.198;2024-01-07T03:19:19;26.45;;;13.80;;
76964;SDS011;65903;51.452;7.198;2024-01-07T03:20:21;25.45;;;14.35;;
76964;SDS011;65903;51.452;7.198;2024-01-07T03:21:22;26.35;;;14.15;;
76964;SDS011;65903;51.452;7.198;2024-01-07T03:22:23;26.33;;;15.07;;
76964;SDS011;65903;51.452;7.198;2024-01-07T03:23:23;23.27;;;14.23;;
76964;SDS011;65903;51.452;7.198;2024-01-07T03:24:24;27.70;;;14.13;;
76964;SDS011;65903;51.452;7.198;2024-01-07T03:25:24;26.23;;;15.60;;
76964;SDS011;65903;51.452;7.198;2024-01-07T03:26:24;23.33;;;12.55;;
76964;SDS011;65903;51.452;7.198;2024-01-07T03:27:25;25.42;;;13.85;;
76964;SDS011;65903;51.452;7.198;2024-01-07T03:28:25;25.25;;;14.30;;
76964;SDS011;65903;51.452;7.198;2024-01-07T03:29:26;24.38;;;12.07;;
76964;SDS011;65903;51.452;7.198;2024-01-07T03:30:26;25.15;;;14.23;;
76964;SDS011;65903;51.452;7.198;2024-01-07T03:31:26;26.35;;;13.60;;
76964;SDS011;65903;51.452;7.198;2024-01-07T03:32:27;24.77;;;13.90;;
76964;SDS011;65903;51.452;7.198;2024-01-07T03:33:28;27.52;;;15.15;;
76964;SDS011;65903;51.452;7.198;2024-01-07T03:34:29;22.70;;;13.93;;
76964;SDS011;65903;51.452;7.198;2024-01-07T03:35:29;26.27;;;13.65;;
76964;SDS011;65903;51.452;7.198;2024-01-07T03:36:30;25.58;;;13.63;;
76964;SDS011;65903;51.452;7.198;2024-01-07T03:37:31;22.55;;;13.10;;
76964;SDS011;65903;51.452;7.198;2024-01-07T03:38:31;23.75;;;13.90;;
76964;SDS011;65903;51.452;7.198;2024-01-07T03:39:32;25.77;;;14.88;;
76964;SDS011;65903;51.452;7.198;2024-01-07T03:40:33;23.50;;;13.40;;
76964;SDS011;65903;51.452;7.198;2024-01-07T03:41:33;24.70;;;13.15;;
76964;SDS011;65903;51.452;7.198;2024-01-07T03:42:34;24.90;;;13.88;;
76964;SDS011;65903;51.452;7.198;2024-01-07T03:43:34;20.25;;;12.32;;
76964;SDS011;65903;51.452;7.198;2024-01-07T03:44:35;24.35;;;13.23;;
76964;SDS011;65903;51.452;7.198;2024-01-07T03:45:36;23.20;;;14.30;;
76964;SDS011;65903;51.452;7.198;2024-01-07T03:46:36;20.58;;;12.13;;
76964;SDS011;65903;51.452;7.198;2024-01-07T03:47:37;23.10;;;13.82;;
76964;SDS011;65903;51.452;7.198;2024-01-07T03:48:37;26.15;;;13.10;;
76964;SDS011;65903;51.452;7.198;2024-01-07T03:49:37;19.48;;;12.55;;
76964;SDS011;65903;51.452;7.198;2024-01-07T03:50:39;21.45;;;11.95;;
76964;SDS011;65903;51.452;7.198;2024-01-07T03:51:40;22.00;;;12.55;;
76964;SDS011;65903;51.452;7.198;2024-01-07T03:52:40;18.83;;;11.10;;
76964;SDS011;65903;51.452;7.198;2024-01-07T03:53:41;23.15;;;12.82;;
76964;SDS011;65903;51.452;7.198;2024-01-07T03:54:42;24.17;;;14.13;;
76964;SDS011;65903;51.452;7.198;2024-01-07T03:55:42;21.17;;;12.15;;
76964;SDS011;65903;51.452;7.198;2024-01-07T03:56:43;19.30;;;12.55;;
76964;SDS011;65903;51.452;7.198;2024-01-07T03:57:44;18.17;;;11.13;;
76964;SDS011;65903;51.452;7.198;2024-01-07T03:58:44;19.85;;;12.63;;
76964;SDS011;65903;51.452;7.198;2024-01-07T03:59:45;18.83;;;11.20;;
76964;SDS011;65903;51.452;7.198;2024-01-07T04:00:45;19.73;;;12.85;;
76964;SDS011;65903;51.452;7.198;2024-01-07T04:01:45;19.88;;;12.20;;
76964;SDS011;65903;51.452;7.198;2024-01-07T04:02:46;16.90;;;12.23;;
76964;SDS011;65903;51.452;7.198;2024-01-07T04:03:46;21.75;;;13.55;;
76964;SDS011;65903;51.452;7.198;2024-01-07T04:04:48;18.42;;;10.27;;
76964;SDS011;65903;51.452;7.198;2024-01-07T04:05:49;19.30;;;11.40;;
76964;SDS011;65903;51.452;7.198;2024-01-07T04:06:49;20.42;;;14.35;;
76964;SDS011;65903;51.452;7.198;2024-01-07T04:07:50;18.77;;;11.52;;
76964;SDS011;65903;51.452;7.198;2024-01-07T04:08:50;21.83;;;12.35;;
76964;SDS011;65903;51.452;7.198;2024-01-07T04:09:51;17.83;;;10.65;;
76964;SDS011;65903;51.452;7.198;2024-01-07T04:10:51;20.35;;;12.85;;
76964;SDS011;65903;51.452;7.198;2024-01-07T04:11:52;18.30;;;11.15;;
76964;SDS011;65903;51.452;7.198;2024-01-07T04:12:52;17.88;;;10.93;;
76964;SDS011;65903;51.452;7.198;2024-01-07T04:13:53;18.42;;;10.48;;
76964;SDS011;65903;51.452;7.198;2024-01-07T04:14:53;18.65;;;11.60;;
76964;SDS011;65903;51.452;7.198;2024-01-07T04:15:53;20.15;;;13.30;;
76964;SDS011;65903;51.452;7.198;2024-01-07T04:16:54;21.20;;;13.63;;
76964;SDS011;65903;51.452;7.198;2024-01-07T04:17:54;20.38;;;11.90;;
76964;SDS011;65903;51.452;7.198;2024-01-07T04:18:55;24.02;;;13.75;;
76964;SDS011;65903;51.452;7.198;2024-01-07T04:19:55;19.10;;;13.18;;
76964;SDS011;65903;51.452;7.198;2024-01-07T04:20:56;20.85;;;11.77;;
76964;SDS011;65903;51.452;7.198;2024-01-07T04:21:56;18.05;;;13.38;;
76964;SDS011;65903;51.452;7.198;2024-01-07T04:22:57;20.52;;;12.05;;
76964;SDS011;65903;51.452;7.198;2024-01-07T04:23:58;20.65;;;13.20;;
76964;SDS011;65903;51.452;7.198;2024-01-07T04:24:58;21.65;;;12.98;;
76964;SDS011;65903;51.452;7.198;2024-01-07T04:25:59;21.60;;;14.48;;
76964;SDS011;65903;51.452;7.198;2024-01-07T04:27:00;21.52;;;13.70;;
76964;SDS011;65903;51.452;7.198;2024-01-07T04:28:00;24.33;;;15.63;;
76964;SDS011;65903;51.452;7.198;2024-01-07T04:29:01;16.25;;;10.57;;
76964;SDS011;65903;51.452;7.198;2024-01-07T04:30:02;13.93;;;9.90;;
76964;SDS011;65903;51.452;7.198;2024-01-07T04:31:02;20.17;;;11.60;;
76964;SDS011;65903;51.452;7.198;2024-01-07T04:32:03;20.90;;;13.32;;
76964;SDS011;65903;51.452;7.198;2024-01-07T04:33:03;17.10;;;11.32;;
76964;SDS011;65903;51.452;7.198;2024-01-07T04:34:04;21.27;;;12.85;;
76964;SDS011;65903;51.452;7.198;2024-01-07T04:35:05;17.77;;;10.43;;
76964;SDS011;65903;51.452;7.198;2024-01-07T04:36:06;19.45;;;11.23;;
76964;SDS011;65903;51.452;7.198;2024-01-07T04:37:07;20.55;;;13.38;;
76964;SDS011;65903;51.452;7.198;2024-01-07T04:38:07;18.20;;;11.68;;
76964;SDS011;65903;51.452;7.198;2024-01-07T04:39:08;21.35;;;13.73;;
76964;SDS011;65903;51.452;7.198;2024-01-07T04:40:10;19.75;;;13.73;;
76964;SDS011;65903;51.452;7.198;2024-01-07T04:41:10;21.98;;;13.20;;
76964;SDS011;65903;51.452;7.198;2024-01-07T04:42:11;21.33;;;13.98;;
76964;SDS011;65903;51.452;7.198;2024-01-07T04:43:11;18.95;;;10.85;;
76964;SDS011;65903;51.452;7.198;2024-01-07T04:44:11;21.65;;;13.15;;
76964;SDS011;65903;51.452;7.198;2024-01-07T04:45:12;20.58;;;12.15;;
76964;SDS011;65903;51.452;7.198;2024-01-07T04:46:13;20.45;;;11.55;;
76964;SDS011;65903;51.452;7.198;2024-01-07T04:47:30;23.23;;;12.90;;
76964;SDS011;65903;51.452;7.198;2024-01-07T04:48:30;20.23;;;11.38;;
76964;SDS011;65903;51.452;7.198;2024-01-07T04:49:31;22.30;;;12.38;;
76964;SDS011;65903;51.452;7.198;2024-01-07T04:50:32;20.98;;;11.35;;
76964;SDS011;65903;51.452;7.198;2024-01-07T04:51:32;22.33;;;11.90;;
76964;SDS011;65903;51.452;7.198;2024-01-07T04:52:33;23.92;;;12.10;;
76964;SDS011;65903;51.452;7.198;2024-01-07T04:53:33;19.27;;;11.18;;
76964;SDS011;65903;51.452;7.198;2024-01-07T04:54:34;18.85;;;10.85;;
76964;SDS011;65903;51.452;7.198;2024-01-07T04:55:34;16.50;;;11.20;;
76964;SDS011;65903;51.452;7.198;2024-01-07T04:56:36;18.88;;;10.45;;
76964;SDS011;65903;51.452;7.198;2024-01-07T04:57:36;20.42;;;14.20;;
76964;SDS011;65903;51.452;7.198;2024-01-07T04:58:37;18.25;;;10.93;;
76964;SDS011;65903;51.452;7.198;2024-01-07T04:59:37;23.42;;;12.65;;
76964;SDS011;65903;51.452;7.198;2024-01-07T05:00:37;21.30;;;11.98;;
76964;SDS011;65903;51.452;7.198;2024-01-07T05:01:37;19.25;;;10.55;;
76964;SDS011;65903;51.452;7.198;2024-01-07T05:02:38;21.45;;;12.73;;
76964;SDS011;65903;51.452;7.198;2024-01-07T05:03:39;20.90;;;13.55;;
76964;SDS011;65903;51.452;7.198;2024-01-07T05:04:39;17.67;;;10.90;;
76964;SDS011;65903;51.452;7.198;2024-01-07T05:05:40;20.33;;;11.93;;
76964;SDS011;65903;51.452;7.198;2024-01-07T05:06:43;20.33;;;12.18;;
76964;SDS011;65903;51.452;7.198;2024-01-07T05:07:44;24.90;;;13.55;;
76964;SDS011;65903;51.452;7.198;2024-01-07T05:08:44;23.30;;;12.50;;
76964;SDS011;65903;51.452;7.198;2024-01-07T05:09:45;20.48;;;12.68;;
76964;SDS011;65903;51.452;7.198;2024-01-07T05:10:46;24.23;;;12.40;;
76964;SDS011;65903;51.452;7.198;2024-01-07T05:11:46;22.50;;;11.63;;
76964;SDS011;65903;51.452;7.198;2024-01-07T05:12:47;22.88;;;12.25;;
76964;SDS011;65903;51.452;7.198;2024-01-07T05:13:47;20.88;;;10.80;;
76964;SDS011;65903;51.452;7.198;2024-01-07T05:14:48;20.88;;;11.98;;
76964;SDS011;65903;51.452;7.198;2024-01-07T05:15:48;22.73;;;11.20;;
76964;SDS011;65903;51.452;7.198;2024-01-07T05:16:53;24.88;;;12.90;;
76964;SDS011;65903;51.452;7.198;2024-01-07T05:17:54;21.38;;;11.90;;
76964;SDS011;65903;51.452;7.198;2024-01-07T05:18:55;18.25;;;10.85;;
76964;SDS011;65903;51.452;7.198;2024-01-07T05:19:55;19.75;;;11.25;;
76964;SDS011;65903;51.452;7.198;2024-01-07T05:20:55;23.25;;;12.95;;
76964;SDS011;65903;51.452;7.198;2024-01-07T05:21:56;22.80;;;14.18;;
76964;SDS011;65903;51.452;7.198;2024-01-07T05:22:56;24.80;;;13.18;;
76964;SDS011;65903;51.452;7.198;2024-01-07T05:23:57;23.92;;;13.27;;
76964;SDS011;65903;51.452;7.198;2024-01-07T05:24:57;23.60;;;13.98;;
76964;SDS011;65903;51.452;7.198;2024-01-07T05:25:59;23.15;;;12.32;;
76964;SDS011;65903;51.452;7.198;2024-01-07T05:26:59;20.33;;;12.18;;
76964;SDS011;65903;51.452;7.198;2024-01-07T05:28:00;17.38;;;10.75;;
76964;SDS011;65903;51.452;7.198;2024-01-07T05:29:01;22.55;;;13.40;;
76964;SDS011;65903;51.452;7.198;2024-01-07T05:30:01;17.13;;;10.18;;
76964;SDS011;65903;51.452;7.198;2024-01-07T05:31:03;17.67;;;10.63;;
76964;SDS011;65903;51.452;7.198;2024-01-07T05:32:04;22.40;;;11.65;;
76964;SDS011;65903;51.452;7.198;2024-01-07T05:33:05;23.15;;;13.13;;
76964;SDS011;65903;51.452;7.198;2024-01-07T05:34:06;19.20;;;12.50;;
76964;SDS011;65903;51.452;7.198;2024-01-07T05:35:06;22.42;;;15.50;;
76964;SDS011;65903;51.452;7.198;2024-01-07T05:36:07;21.88;;;12.38;;
76964;SDS011;65903;51.452;7.198;2024-01-07T05:37:07;24.33;;;12.90;;
76964;SDS011;65903;51.452;7.198;2024-01-07T05:38:07;24.25;;;14.35;;
76964;SDS011;65903;51.452;7.198;2024-01-07T05:39:08;18.65;;;11.90;;
76964;SDS011;65903;51.452;7.198;2024-01-07T05:40:09;19.67;;;10.90;;
76964;SDS011;65903;51.452;7.198;2024-01-07T05:41:10;21.60;;;12.90;;
76964;SDS011;65903;51.452;7.198;2024-01-07T05:42:11;16.95;;;11.25;;
76964;SDS011;65903;51.452;7.198;2024-01-07T05:43:11;20.50;;;12.80;;
76964;SDS011;65903;51.452;7.198;2024-01-07T05:44:11;23.77;;;12.88;;
76964;SDS011;65903;51.452;7.198;2024-01-07T05:45:12;20.67;;;11.95;;
76964;SDS011;65903;51.452;7.198;2024-01-07T05:46:12;19.23;;;11.68;;
76964;SDS011;65903;51.452;7.198;2024-01-07T05:47:13;24.75;;;12.57;;
76964;SDS011;65903;51.452;7.198;2024-01-07T05:48:14;20.00;;;11.30;;
76964;SDS011;65903;51.452;7.198;2024-01-07T05:49:14;22.33;;;12.18;;
76964;SDS011;65903;51.452;7.198;2024-01-07T05:50:16;20.58;;;14.10;;
76964;SDS011;65903;51.452;7.198;2024-01-07T05:51:19;17.23;;;11.85;;
76964;SDS011;65903;51.452;7.198;2024-01-07T05:52:19;20.55;;;12.77;;
76964;SDS011;65903;51.452;7.198;2024-01-07T05:53:19;21.05;;;13.15;;
76964;SDS011;65903;51.452;7.198;2024-01-07T05:54:20;20.25;;;13.32;;
76964;SDS011;65903;51.452;7.198;2024-01-07T05:55:21;24.30;;;14.25;;
76964;SDS011;65903;51.452;7.198;2024-01-07T05:56:21;19.17;;;12.02;;
76964;SDS011;65903;51.452;7.198;2024-01-07T05:57:21;25.25;;;15.23;;